Time;durP1;ratioP1;P1;durP2;ratioP2;P2;SDS_P1;SDS_P2;PMS_P1;PMS_P2;Temp;Humidity;BMP_temperature;BMP_pressure;BME280_temperature;BME280_humidity;BME280_pressure;Samples;Min_cycle;Max_cycle;Signal;HPM_P1;HPM_P2
2021/11/18 00:03:56;;;;;;;20.1;26.1;;;;;;;6.1;75.4;99370;;;;
2021/11/18 00:13:56;;;;;;;20.1;26.1;;;;;;;6.2;75.4;99370;;;;
2021/11/18 00:24:56;;;;;;;20.1;23.4;;;;;;;6.2;75.7;99380;;;;
2021/11/18 00:34:56;;;;;;;20.1;23.4;;;;;;;6.1;76;99390;;;;
2021/11/18 00:44:57;;;;;;;20.1;23.4;;;;;;;6.1;76.2;99390;;;;
2021/11/18 00:54:56;;;;;;;18.7;26;;;;;;;6.2;76;99390;;;;
2021/11/18 01:04:56;;;;;;;18.7;26;;;;;;;6.2;76;99410;;;;
2021/11/18 01:15:56;;;;;;;18.7;26;;;;;;;6.2;76.2;99400;;;;
2021/11/18 01:25:56;;;;;;;18.3;22.1;;;;;;;6.2;76.6;99400;;;;
2021/11/18 01:36:56;;;;;;;18.3;22.1;;;;;;;6.2;76.9;99390;;;;
2021/11/18 01:46:56;;;;;;;18.3;22.1;;;;;;;6.2;76.8;99400;;;;
2021/11/18 01:57:56;;;;;;;17.1;20;;;;;;;6.1;76.9;99390;;;;
2021/11/18 02:07:56;;;;;;;17.1;20;;;;;;;6;77;99370;;;;
2021/11/18 02:17:57;;;;;;;17.1;20;;;;;;;6;76.6;99380;;;;
2021/11/18 02:27:56;;;;;;;15.6;18.3;;;;;;;6.1;76;99390;;;;
2021/11/18 02:37:56;;;;;;;15.6;18.3;;;;;;;6.2;75.9;99390;;;;
2021/11/18 02:47:56;;;;;;;15.6;18.3;;;;;;;6.3;75.5;99400;;;;
2021/11/18 02:57:56;;;;;;;13.4;15.9;;;;;;;6.4;75.2;99420;;;;
2021/11/18 03:08:56;;;;;;;13.4;15.9;;;;;;;6.5;75.2;99430;;;;
2021/11/18 03:18:56;;;;;;;13.4;15.9;;;;;;;6.5;75.4;99430;;;;
2021/11/18 03:28:56;;;;;;;14.5;16.8;;;;;;;6.4;75.8;99440;;;;
2021/11/18 03:39:56;;;;;;;14.5;16.8;;;;;;;6.4;75.9;99440;;;;
2021/11/18 03:49:57;;;;;;;14.5;16.8;;;;;;;6.3;76.1;99440;;;;
2021/11/18 04:00:56;;;;;;;18.3;22.7;;;;;;;6.3;76.5;99450;;;;
2021/11/18 04:10:56;;;;;;;18.3;22.7;;;;;;;6.3;76.7;99450;;;;
2021/11/18 04:21:56;;;;;;;20.1;26.2;;;;;;;6.3;77.1;99440;;;;
2021/11/18 04:31:56;;;;;;;20.1;26.2;;;;;;;6.2;77.2;99440;;;;
2021/11/18 04:41:56;;;;;;;20.1;26.2;;;;;;;6.2;77.6;99460;;;;
2021/11/18 04:52:56;;;;;;;18.4;21.5;;;;;;;6.1;78.8;99460;;;;
2021/11/18 05:02:56;;;;;;;18.4;21.5;;;;;;;6.1;80.1;99470;;;;
2021/11/18 05:13:56;;;;;;;18.4;21.5;;;;;;;6;81.2;99480;;;;
2021/11/18 05:24:56;;;;;;;18.5;22.9;;;;;;;5.9;81.9;99480;;;;
2021/11/18 05:34:58;;;;;;;18.5;22.9;;;;;;;6;82.3;99500;;;;
2021/11/18 05:44:56;;;;;;;18.5;22.9;;;;;;;6;82.6;99510;;;;
2021/11/18 05:55:56;;;;;;;19.7;22.4;;;;;;;5.9;83;99520;;;;
2021/11/18 06:05:56;;;;;;;19.7;22.4;;;;;;;6;83;99540;;;;
2021/11/18 06:15:56;;;;;;;19.7;22.4;;;;;;;6;82.8;99550;;;;
2021/11/18 06:25:56;;;;;;;19.7;22.9;;;;;;;6.1;82.5;99560;;;;
2021/11/18 06:35:56;;;;;;;19.7;22.9;;;;;;;6.2;82.1;99570;;;;
2021/11/18 06:45:58;;;;;;;19.7;22.9;;;;;;;6.3;81.3;99560;;;;
2021/11/18 06:56:56;;;;;;;19.3;22.1;;;;;;;6.3;81.1;99560;;;;
2021/11/18 07:07:56;;;;;;;19.3;22.1;;;;;;;6.3;80.9;99570;;;;
2021/11/18 07:17:56;;;;;;;19.3;22.1;;;;;;;6.5;80.2;99570;;;;
2021/11/18 07:27:56;;;;;;;19.3;22.1;;;;;;;6.5;79.6;99560;;;;
2021/11/18 07:37:58;;;;;;;19.3;22.1;;;;;;;6.6;79;99570;;;;
2021/11/18 07:48:56;;;;;;;19.3;22.1;;;;;;;7;78;99570;;;;
2021/11/18 07:59:56;;;;;;;18.3;22.7;;;;;;;7.6;76.6;99570;;;;
2021/11/18 08:09:56;;;;;;;18.3;22.7;;;;;;;7.9;74.7;99580;;;;
2021/11/18 08:19:56;;;;;;;13.1;19.4;;;;;;;8.5;73.1;99590;;;;
2021/11/18 08:29:56;;;;;;;13.1;19.4;;;;;;;8.3;71.8;99600;;;;
2021/11/18 08:40:56;;;;;;;13.1;19.4;;;;;;;8.2;72;99600;;;;
2021/11/18 08:50:56;;;;;;;11.7;16.1;;;;;;;8.1;71.4;99600;;;;
2021/11/18 09:01:56;;;;;;;11.7;16.1;;;;;;;8;71.2;99610;;;;
2021/11/18 09:11:56;;;;;;;11.7;16.1;;;;;;;8;71.3;99630;;;;
2021/11/18 09:21:56;;;;;;;11.7;17.1;;;;;;;8.1;70.8;99640;;;;
2021/11/18 09:31:56;;;;;;;11.7;17.1;;;;;;;8.4;69.7;99640;;;;
2021/11/18 09:42:56;;;;;;;11.7;17.1;;;;;;;8.6;68;99650;;;;
2021/11/18 09:53:56;;;;;;;10.3;15.3;;;;;;;8.5;68.9;99640;;;;
2021/11/18 10:04:56;;;;;;;10.3;15.3;;;;;;;8.4;69;99630;;;;
2021/11/18 10:15:56;;;;;;;10.3;15.3;;;;;;;8.4;68.5;99640;;;;
2021/11/18 10:25:56;;;;;;;9.4;12.2;;;;;;;8.3;68.4;99620;;;;
2021/11/18 10:35:56;;;;;;;9.4;12.2;;;;;;;8.5;68.7;99620;;;;
2021/11/18 10:45:56;;;;;;;9.4;12.2;;;;;;;9.1;66.8;99620;;;;
2021/11/18 10:56:56;;;;;;;9.5;12.8;;;;;;;9.4;65.1;99610;;;;
2021/11/18 11:06:56;;;;;;;9.5;12.8;;;;;;;9.2;65.4;99620;;;;
2021/11/18 11:16:56;;;;;;;9.5;12.8;;;;;;;8.5;70.3;99620;;;;
2021/11/18 11:27:56;;;;;;;8.4;13.6;;;;;;;8;72.3;99600;;;;
2021/11/18 11:37:56;;;;;;;8.4;13.6;;;;;;;8.4;71.8;99590;;;;
2021/11/18 11:47:56;;;;;;;8.4;13.6;;;;;;;8.1;70.9;99600;;;;
2021/11/18 11:57:56;;;;;;;8.2;9.9;;;;;;;8.7;71.1;99590;;;;
2021/11/18 12:07:56;;;;;;;8.2;9.9;;;;;;;8.6;69.8;99580;;;;
2021/11/18 12:18:56;;;;;;;8.2;9.9;;;;;;;8.1;69.9;99590;;;;
2021/11/18 12:28:56;;;;;;;7.7;12.9;;;;;;;8.1;69.8;99580;;;;
2021/11/18 12:38:58;;;;;;;7.7;12.9;;;;;;;7.9;68.8;99590;;;;
2021/11/18 12:49:00;;;;;;;7.7;12.9;;;;;;;8;68.3;99580;;;;
2021/11/18 12:59:57;;;;;;;7.1;15.1;;;;;;;8.1;69;99570;;;;
2021/11/18 13:09:56;;;;;;;7.1;15.1;;;;;;;8.1;69.1;99570;;;;
2021/11/18 13:19:56;;;;;;;9.3;13.8;;;;;;;8.1;68.8;99570;;;;
2021/11/18 13:29:56;;;;;;;9.3;13.8;;;;;;;8;69;99560;;;;
2021/11/18 13:39:56;;;;;;;9.3;13.8;;;;;;;8;69.4;99580;;;;
2021/11/18 13:49:58;;;;;;;9.7;12.8;;;;;;;7.8;69.9;99580;;;;
2021/11/18 13:59:56;;;;;;;9.7;12.8;;;;;;;7.9;69.3;99570;;;;
2021/11/18 14:09:58;;;;;;;9.7;12.8;;;;;;;7.9;69.5;99550;;;;
2021/11/18 14:20:56;;;;;;;8.9;11.9;;;;;;;7.8;68.9;99550;;;;
2021/11/18 14:31:56;;;;;;;8.9;11.9;;;;;;;7.8;68.7;99560;;;;
2021/11/18 14:41:56;;;;;;;8.9;11.9;;;;;;;7.9;68.4;99570;;;;
2021/11/18 14:52:00;;;;;;;10.3;15.7;;;;;;;7.8;68.6;99580;;;;
2021/11/18 15:01:56;;;;;;;10.3;15.7;;;;;;;7.7;68.9;99580;;;;
2021/11/18 15:11:56;;;;;;;10.3;15.7;;;;;;;7.7;68.6;99580;;;;
2021/11/18 15:21:56;;;;;;;9.2;14.9;;;;;;;7.7;68.3;99580;;;;
2021/11/18 15:31:56;;;;;;;9.2;14.9;;;;;;;7.7;67.9;99580;;;;
2021/11/18 15:41:56;;;;;;;9.2;14.9;;;;;;;7.6;68;99590;;;;
2021/11/18 15:51:56;;;;;;;9.5;14.4;;;;;;;7.6;67.8;99590;;;;
2021/11/18 16:02:56;;;;;;;9.5;14.4;;;;;;;7.6;67.7;99600;;;;
2021/11/18 16:12:56;;;;;;;9.5;14.4;;;;;;;7.5;68.3;99600;;;;
2021/11/18 16:22:56;;;;;;;11;13.8;;;;;;;7.5;68.5;99590;;;;
2021/11/18 16:33:56;;;;;;;11;13.8;;;;;;;7.5;68.4;99620;;;;
2021/11/18 16:43:56;;;;;;;11;13.8;;;;;;;7.6;68.2;99600;;;;
2021/11/18 16:53:56;;;;;;;13;15.6;;;;;;;7.5;68;99590;;;;
2021/11/18 17:03:56;;;;;;;13;15.6;;;;;;;7.4;68.2;99580;;;;
2021/11/18 17:13:56;;;;;;;13;15.6;;;;;;;7.3;68.5;99580;;;;
2021/11/18 17:23:56;;;;;;;15.1;22.5;;;;;;;7.2;68.7;99600;;;;
2021/11/18 17:34:57;;;;;;;15.1;22.5;;;;;;;7.2;68.8;99620;;;;
2021/11/18 17:45:56;;;;;;;15.1;22.5;;;;;;;7.2;68.8;99620;;;;
2021/11/18 17:55:56;;;;;;;18.4;24.7;;;;;;;7.2;68.6;99630;;;;
2021/11/18 18:05:56;;;;;;;18.4;24.7;;;;;;;7.3;68.3;99620;;;;
2021/11/18 18:16:56;;;;;;;18.4;24.7;;;;;;;7.3;68.5;99590;;;;
2021/11/18 18:26:56;;;;;;;19.3;24;;;;;;;7.3;69;99590;;;;
2021/11/18 18:37:56;;;;;;;19.3;24;;;;;;;7.4;68.5;99590;;;;
2021/11/18 18:47:57;;;;;;;19.3;24;;;;;;;7.5;68.2;99600;;;;
2021/11/18 18:58:58;;;;;;;15.2;21.5;;;;;;;7.5;68.6;99570;;;;
2021/11/18 19:09:56;;;;;;;15.2;21.5;;;;;;;7.5;68.5;99570;;;;
2021/11/18 19:19:56;;;;;;;15.7;21;;;;;;;7.5;67.5;99560;;;;
2021/11/18 19:39:56;;;;;;;15.7;21;;;;;;;7.5;68.2;99560;;;;
2021/11/18 19:49:56;;;;;;;20.1;23.9;;;;;;;7.6;68;99570;;;;
2021/11/18 20:00:56;;;;;;;20.1;23.9;;;;;;;7.5;68.3;99550;;;;
2021/11/18 20:10:57;;;;;;;20.1;23.9;;;;;;;7.5;68.4;99550;;;;
2021/11/18 20:20:56;;;;;;;19.2;23.2;;;;;;;7.5;68.7;99550;;;;
2021/11/18 20:31:56;;;;;;;19.2;23.2;;;;;;;7.5;68.8;99550;;;;
2021/11/18 20:41:56;;;;;;;19.2;23.2;;;;;;;7.5;68.8;99540;;;;
2021/11/18 20:51:56;;;;;;;14.9;19.2;;;;;;;7.6;68.5;99530;;;;
2021/11/18 21:02:56;;;;;;;14.9;19.2;;;;;;;7.6;68.4;99510;;;;
2021/11/18 21:12:56;;;;;;;14.9;19.2;;;;;;;7.6;68.2;99510;;;;
2021/11/18 21:23:56;;;;;;;13.7;19;;;;;;;7.6;68.7;99500;;;;
2021/11/18 21:33:58;;;;;;;13.7;19;;;;;;;7.7;68.7;99490;;;;
2021/11/18 21:44:56;;;;;;;13.7;19;;;;;;;7.7;69;99480;;;;
2021/11/18 21:54:56;;;;;;;13.8;19.7;;;;;;;7.8;68.5;99480;;;;
2021/11/18 22:04:56;;;;;;;13.8;19.7;;;;;;;7.8;68.7;99470;;;;
2021/11/18 22:14:58;;;;;;;13.8;19.7;;;;;;;7.9;68.6;99460;;;;
2021/11/18 22:24:58;;;;;;;13.2;17.8;;;;;;;7.9;68.7;99450;;;;
2021/11/18 22:35:56;;;;;;;13.2;17.8;;;;;;;7.9;68.7;99440;;;;
2021/11/18 22:45:56;;;;;;;13.2;17.8;;;;;;;7.9;69.1;99430;;;;
2021/11/18 22:56:56;;;;;;;10.9;15.7;;;;;;;7.9;68.7;99410;;;;
2021/11/18 23:07:56;;;;;;;10.9;15.7;;;;;;;8;68.3;99400;;;;
2021/11/18 23:52:25;;;;;;;10.9;13.4;;;;;;;8;68.5;99360;;;;
